Time;durP1;ratioP1;P1;durP2;ratioP2;P2;SDS_P1;SDS_P2;PMS_P1;PMS_P2;Temp;Humidity;BMP_temperature;BMP_pressure;BME280_temperature;BME280_humidity;BME280_pressure;Samples;Min_cycle;Max_cycle;Signal;HPM_P1;HPM_P2
2023/03/20 00:01:01;;;;;;;19.13;8.85;;;;;;;8.31;59.67;100174.03;3171228;28;20078;-67
2023/03/20 00:02:33;;;;;;;18.05;8.73;;;;;;;8.30;59.52;100170.59;3170829;28;20047;-67
2023/03/20 00:04:05;;;;;;;20.70;9.20;;;;;;;8.31;59.34;100174.91;3170972;28;20054;-67
2023/03/20 00:05:37;;;;;;;18.60;9.15;;;;;;;8.30;59.54;100174.94;3170629;28;20048;-67
2023/03/20 00:07:11;;;;;;;17.77;8.30;;;;;;;8.31;59.11;100169.72;3165320;28;20050;-67
2023/03/20 00:08:44;;;;;;;16.85;8.95;;;;;;;8.32;59.17;100167.97;3163954;28;20424;-67
2023/03/20 00:10:18;;;;;;;16.73;8.70;;;;;;;8.22;58.93;100144.03;3171185;28;20044;-66
2023/03/20 00:11:52;;;;;;;17.17;8.52;;;;;;;8.23;58.76;100155.28;3171054;28;20531;-67
2023/03/20 00:13:27;;;;;;;16.67;8.35;;;;;;;8.05;59.07;100123.81;3171155;28;20044;-67
2023/03/20 00:15:00;;;;;;;17.92;8.82;;;;;;;8.31;58.86;100159.34;3170860;28;20052;-66
2023/03/20 00:16:33;;;;;;;22.10;9.80;;;;;;;8.24;58.80;100144.84;3170726;27;20177;-66
2023/03/20 00:18:14;;;;;;;18.75;10.00;;;;;;;7.54;58.55;100028.50;3171173;28;20051;-66
2023/03/20 00:19:45;;;;;;;17.30;8.75;;;;;;;8.14;58.37;100122.69;3170716;28;20151;-66
2023/03/20 00:21:18;;;;;;;20.00;9.20;;;;;;;8.30;58.25;100147.25;3170850;28;20500;-66
2023/03/20 00:22:51;;;;;;;18.35;9.15;;;;;;;8.28;58.18;100146.47;3171185;28;20051;-67
2023/03/20 00:24:23;;;;;;;17.80;8.27;;;;;;;8.29;58.33;100148.16;3170191;28;20120;-66
2023/03/20 00:25:56;;;;;;;18.30;8.75;;;;;;;8.22;58.11;100128.47;3170844;28;20055;-67
2023/03/20 00:27:27;;;;;;;18.70;8.52;;;;;;;8.29;58.29;100145.56;3162509;28;20166;-66
2023/03/20 00:28:59;;;;;;;24.63;9.23;;;;;;;7.64;57.83;100036.88;3171164;28;20055;-66
2023/03/20 00:30:31;;;;;;;16.48;8.77;;;;;;;8.28;58.07;100149.06;3170920;28;20051;-66
2023/03/20 00:32:02;;;;;;;16.52;8.05;;;;;;;8.26;58.05;100145.66;3170139;28;20454;-66
2023/03/20 00:33:37;;;;;;;16.15;8.20;;;;;;;8.25;57.96;100143.94;3170806;28;20123;-67
2023/03/20 00:35:18;;;;;;;17.85;8.98;;;;;;;8.17;58.00;100132.97;3170605;28;20164;-67
2023/03/20 00:36:50;;;;;;;18.52;7.97;;;;;;;8.17;58.17;100139.00;3167784;28;20047;-67
2023/03/20 00:38:22;;;;;;;16.88;8.40;;;;;;;8.08;58.09;100125.47;3169962;28;20130;-67
2023/03/20 00:39:53;;;;;;;16.83;8.77;;;;;;;8.10;57.94;100121.91;3170650;28;20052;-67
2023/03/20 00:41:28;;;;;;;15.60;8.43;;;;;;;8.17;58.09;100128.63;3170892;28;20688;-67
2023/03/20 00:43:02;;;;;;;20.77;10.00;;;;;;;8.18;57.75;100137.25;3170446;28;20516;-66
2023/03/20 00:44:37;;;;;;;17.10;8.32;;;;;;;8.04;58.13;100114.31;3170649;28;20047;-66
2023/03/20 00:46:12;;;;;;;19.70;9.52;;;;;;;8.14;57.85;100131.31;3169799;28;20043;-65
2023/03/20 00:47:44;;;;;;;15.77;7.78;;;;;;;8.07;57.80;100118.56;3170646;28;20432;-67
2023/03/20 00:49:25;;;;;;;16.08;8.02;;;;;;;7.59;58.03;100041.31;3170334;28;20051;-66
2023/03/20 00:50:58;;;;;;;23.20;9.00;;;;;;;8.12;58.03;100124.47;3170093;28;20512;-66
2023/03/20 00:52:29;;;;;;;18.63;8.85;;;;;;;8.06;57.96;100116.88;3170372;28;20047;-66
2023/03/20 00:54:01;;;;;;;18.48;8.27;;;;;;;8.08;58.08;100120.28;3170436;28;20078;-66
2023/03/20 00:55:33;;;;;;;23.05;9.27;;;;;;;8.11;57.97;100123.63;3170068;28;20452;-66
2023/03/20 00:57:07;;;;;;;21.25;10.30;;;;;;;8.12;58.40;100127.06;3170475;28;20051;-66
2023/03/20 00:58:39;;;;;;;17.27;8.75;;;;;;;8.10;58.62;100124.50;3170106;28;20048;-66
2023/03/20 01:00:22;;;;;;;16.98;8.55;;;;;;;8.09;58.53;100121.97;3170614;28;20055;-66
2023/03/20 01:01:55;;;;;;;19.00;8.90;;;;;;;7.95;58.75;100101.59;3170503;28;20534;-66
2023/03/20 01:03:28;;;;;;;18.20;7.90;;;;;;;7.98;58.72;100117.06;3170256;28;20051;-66
2023/03/20 01:05:02;;;;;;;16.85;8.82;;;;;;;7.96;58.74;100119.75;3170374;28;20074;-67
2023/03/20 01:06:34;;;;;;;17.85;8.60;;;;;;;7.98;58.82;100125.69;3169022;28;20085;-66
2023/03/20 01:08:13;;;;;;;21.27;8.88;;;;;;;7.99;58.61;100118.81;3158724;28;20135;-66
2023/03/20 01:09:46;;;;;;;20.40;8.10;;;;;;;7.96;58.60;100122.31;3170466;28;20079;-66
2023/03/20 01:11:23;;;;;;;21.27;9.18;;;;;;;7.91;58.79;100111.22;3170260;28;20051;-66
2023/03/20 01:12:58;;;;;;;16.63;8.63;;;;;;;8.03;58.64;100130.78;3170587;28;20051;-67
2023/03/20 01:14:29;;;;;;;17.85;8.85;;;;;;;8.03;58.77;100128.19;3170112;28;20073;-66
2023/03/20 01:16:01;;;;;;;25.77;9.85;;;;;;;8.04;58.51;100121.25;3170480;28;20055;-68
2023/03/20 01:17:33;;;;;;;19.15;9.35;;;;;;;8.03;58.56;100120.41;3170256;28;20112;-68
2023/03/20 01:19:05;;;;;;;18.52;8.35;;;;;;;8.03;58.79;100117.81;3170606;28;20063;-67
2023/03/20 01:20:38;;;;;;;17.08;8.90;;;;;;;7.91;58.54;100100.00;3169735;28;20075;-66
2023/03/20 01:22:12;;;;;;;19.27;9.13;;;;;;;8.02;58.61;100126.50;3170555;28;20104;-66
2023/03/20 01:23:45;;;;;;;18.40;8.38;;;;;;;7.95;58.81;100106.81;3170105;28;20051;-68
2023/03/20 01:25:16;;;;;;;22.27;9.38;;;;;;;7.58;58.61;100047.41;3170577;27;20047;-68
2023/03/20 01:26:50;;;;;;;15.43;8.23;;;;;;;8.00;58.86;100114.47;3170302;28;20047;-68
2023/03/20 01:28:22;;;;;;;18.38;8.55;;;;;;;7.92;58.69;100096.53;3170144;28;20092;-69
2023/03/20 01:29:54;;;;;;;17.00;8.63;;;;;;;7.98;58.79;100104.13;3170180;28;20047;-68
2023/03/20 01:31:25;;;;;;;22.55;10.45;;;;;;;7.98;58.91;100104.97;3170253;28;20043;-68
2023/03/20 01:33:01;;;;;;;16.60;8.70;;;;;;;7.97;58.87;100105.03;3169840;28;20526;-67
2023/03/20 01:34:33;;;;;;;19.20;9.07;;;;;;;7.90;58.99;100104.34;3166089;28;20055;-68
2023/03/20 01:36:08;;;;;;;19.50;9.63;;;;;;;7.86;59.11;100097.53;3166275;28;20058;-69
2023/03/20 01:37:40;;;;;;;17.80;9.10;;;;;;;7.91;59.12;100115.56;3172534;27;20044;-69
2023/03/20 01:39:12;;;;;;;21.45;9.50;;;;;;;7.78;59.24;100088.28;3160538;28;20048;-66
2023/03/20 01:40:53;;;;;;;18.55;9.55;;;;;;;7.84;59.19;100093.28;3169957;28;20043;-66
2023/03/20 01:42:24;;;;;;;18.05;8.55;;;;;;;7.90;59.10;100103.50;3169946;28;20108;-66
2023/03/20 01:43:56;;;;;;;19.48;8.95;;;;;;;7.77;59.23;100091.78;3169997;28;20051;-67
2023/03/20 01:45:31;;;;;;;23.90;10.00;;;;;;;7.83;59.13;100094.19;3169932;28;20055;-66
2023/03/20 01:47:12;;;;;;;21.98;9.80;;;;;;;7.83;59.07;100096.78;3169555;28;20051;-66
2023/03/20 01:49:00;;;;;;;17.50;8.52;;;;;;;7.88;58.94;100106.13;3169857;28;20118;-67
2023/03/20 01:50:33;;;;;;;20.23;8.52;;;;;;;7.32;59.06;100019.66;3170177;28;20101;-67
2023/03/20 01:52:05;;;;;;;20.67;9.55;;;;;;;7.78;59.03;100085.69;3169599;28;20043;-67
2023/03/20 01:53:37;;;;;;;27.50;9.40;;;;;;;7.84;59.17;100096.75;3169593;28;20134;-67
2023/03/20 01:55:08;;;;;;;17.77;8.73;;;;;;;7.77;59.24;100090.03;3169261;28;20100;-67
2023/03/20 01:56:45;;;;;;;21.75;9.20;;;;;;;7.83;59.28;100099.38;3169871;28;20047;-67
2023/03/20 01:58:22;;;;;;;19.25;9.13;;;;;;;6.77;59.05;99936.56;3168902;28;20731;-66
2023/03/20 02:00:00;;;;;;;25.35;9.18;;;;;;;7.79;59.17;100100.38;3169322;28;20047;-66
2023/03/20 02:01:35;;;;;;;19.35;9.60;;;;;;;7.75;59.34;100103.06;3169574;28;20436;-66
2023/03/20 02:03:09;;;;;;;20.92;9.27;;;;;;;7.72;59.43;100104.91;3169715;28;20508;-66
2023/03/20 02:04:45;;;;;;;27.55;10.52;;;;;;;7.60;59.57;100089.66;3157324;28;20063;-66
2023/03/20 02:06:19;;;;;;;21.60;9.73;;;;;;;7.70;59.72;100096.31;3159352;28;20044;-66
2023/03/20 02:07:59;;;;;;;21.08;9.68;;;;;;;7.51;59.54;100076.09;3169153;28;20536;-67
2023/03/20 02:09:31;;;;;;;21.25;9.68;;;;;;;7.60;59.61;100095.72;3160817;28;20066;-66
2023/03/20 02:11:05;;;;;;;26.40;10.48;;;;;;;7.38;59.59;100063.53;3169529;28;20455;-67
2023/03/20 02:12:37;;;;;;;28.02;12.50;;;;;;;7.55;59.88;100097.59;3169565;28;20074;-66
2023/03/20 02:14:10;;;;;;;22.77;11.27;;;;;;;7.57;59.96;100111.34;3169331;28;20468;-66
2023/03/20 02:16:07;;;;;;;24.23;10.68;;;;;;;7.55;59.72;100107.09;3169234;28;20051;-67
2023/03/20 02:17:38;;;;;;;24.38;10.90;;;;;;;7.54;59.88;100095.88;3154710;28;20047;-66
2023/03/20 02:19:17;;;;;;;25.42;11.45;;;;;;;7.52;59.76;100098.53;3169363;28;20050;-67
2023/03/20 02:21:11;;;;;;;21.02;9.88;;;;;;;7.53;59.67;100099.38;3169818;28;20134;-66
2023/03/20 02:22:52;;;;;;;;;;;;;;;7.45;59.54;100102.19;3168919;28;20050;-66
2023/03/20 02:25:04;;;;;;;25.33;11.07;;;;;;;7.43;59.60;100098.78;3168995;28;19919;-66
2023/03/20 02:27:03;;;;;;;23.02;11.23;;;;;;;7.34;59.65;100083.50;3169118;28;20047;-66
2023/03/20 02:29:20;;;;;;;24.90;11.38;;;;;;;7.37;59.86;100092.91;3169470;28;20035;-66
2023/03/20 02:31:17;;;;;;;26.52;11.45;;;;;;;7.33;59.44;100086.09;3163226;28;20053;-65
2023/03/20 02:33:17;;;;;;;23.20;10.82;;;;;;;7.24;59.93;100082.03;3169420;28;20052;-66
2023/03/20 02:35:27;;;;;;;29.27;11.25;;;;;;;7.32;59.84;100097.38;3168550;28;20059;-66
2023/03/20 02:37:23;;;;;;;25.60;11.57;;;;;;;7.17;59.67;100075.31;3160290;28;20043;-66
2023/03/20 02:39:08;;;;;;;25.40;11.68;;;;;;;7.29;59.73;100091.38;3169380;28;20050;-67
2023/03/20 02:40:48;;;;;;;26.58;11.50;;;;;;;7.29;59.82;100090.53;3169374;28;20047;-67
2023/03/20 02:42:30;;;;;;;21.33;11.05;;;;;;;7.29;59.67;100083.59;3169288;28;20173;-68
2023/03/20 02:44:08;;;;;;;32.08;12.30;;;;;;;7.21;59.66;100082.94;3169030;28;20051;-65
2023/03/20 02:45:48;;;;;;;26.30;11.40;;;;;;;7.29;59.80;100082.75;3168718;28;20052;-65
2023/03/20 02:47:26;;;;;;;26.80;11.38;;;;;;;7.28;59.78;100094.03;3169116;28;20051;-65
2023/03/20 02:49:05;;;;;;;24.15;11.00;;;;;;;7.06;59.92;100053.13;3169095;28;20047;-68
2023/03/20 02:50:44;;;;;;;23.88;10.63;;;;;;;7.08;59.75;100055.69;3169589;28;20138;-66
2023/03/20 02:52:22;;;;;;;25.13;11.68;;;;;;;7.24;59.79;100085.44;3164493;28;20124;-66
2023/03/20 02:54:04;;;;;;;25.00;11.85;;;;;;;7.18;59.94;100072.66;3156085;28;20125;-66
2023/03/20 02:55:41;;;;;;;24.30;11.13;;;;;;;7.25;59.78;100088.91;3160539;28;20084;-65
2023/03/20 02:57:20;;;;;;;21.63;11.27;;;;;;;7.23;59.97;100085.50;3159899;28;20056;-66
2023/03/20 02:59:02;;;;;;;22.10;10.88;;;;;;;7.21;60.00;100087.28;3159153;28;20044;-66
2023/03/20 03:00:38;;;;;;;26.52;11.27;;;;;;;7.16;60.06;100092.59;3159297;28;20047;-66
2023/03/20 03:02:14;;;;;;;23.40;10.95;;;;;;;6.96;60.02;100059.47;3160336;28;20116;-66
2023/03/20 03:03:50;;;;;;;25.45;10.25;;;;;;;7.10;60.20;100087.59;3159292;28;20062;-66
2023/03/20 03:05:27;;;;;;;21.08;9.93;;;;;;;7.06;60.31;100088.53;3159506;28;20090;-66
2023/03/20 03:07:02;;;;;;;24.85;11.18;;;;;;;6.99;60.33;100071.47;3159817;28;20127;-66
2023/03/20 03:08:39;;;;;;;21.02;11.05;;;;;;;7.01;60.12;100078.31;3155337;28;20118;-66
2023/03/20 03:10:19;;;;;;;23.35;11.07;;;;;;;6.93;60.02;100069.03;3162104;28;20475;-66
2023/03/20 03:11:56;;;;;;;21.65;10.90;;;;;;;6.93;60.20;100082.84;3162514;28;20512;-66
2023/03/20 03:13:31;;;;;;;19.25;9.90;;;;;;;6.42;60.09;100002.16;3163131;28;20639;-66
2023/03/20 03:15:10;;;;;;;19.20;10.38;;;;;;;6.80;60.29;100078.84;3161665;28;20052;-66
2023/03/20 03:16:45;;;;;;;18.70;10.35;;;;;;;6.78;60.53;100072.88;3162233;28;20048;-66
2023/03/20 03:18:20;;;;;;;18.90;10.57;;;;;;;6.74;60.35;100079.00;3161584;28;20536;-66
2023/03/20 03:19:57;;;;;;;21.00;9.77;;;;;;;6.71;60.46;100085.09;3162661;28;20464;-66
2023/03/20 03:21:30;;;;;;;23.15;10.00;;;;;;;6.60;60.47;100061.25;3161866;28;20496;-67
2023/03/20 03:23:04;;;;;;;20.27;9.85;;;;;;;6.04;60.61;99980.69;3161578;28;20112;-65
2023/03/20 03:24:37;;;;;;;18.50;10.25;;;;;;;6.63;60.51;100071.53;3161550;28;20056;-65
2023/03/20 03:26:15;;;;;;;17.20;9.63;;;;;;;6.60;60.70;100075.03;3162148;28;20492;-65
2023/03/20 03:28:01;;;;;;;21.90;10.25;;;;;;;6.55;61.01;100076.88;3161283;28;20051;-65
2023/03/20 03:29:36;;;;;;;19.23;10.20;;;;;;;6.50;61.09;100075.28;3162106;28;20071;-65
2023/03/20 03:31:14;;;;;;;22.23;10.05;;;;;;;6.47;61.17;100072.78;3162400;28;20062;-65
2023/03/20 03:32:48;;;;;;;21.73;10.32;;;;;;;6.45;61.17;100069.34;3161712;28;20059;-66
2023/03/20 03:34:22;;;;;;;24.20;9.77;;;;;;;6.43;61.39;100082.34;3161420;28;20554;-67
2023/03/20 03:36:03;;;;;;;20.73;10.93;;;;;;;6.42;61.45;100074.59;3162002;28;20467;-66
2023/03/20 03:37:45;;;;;;;19.63;9.95;;;;;;;6.18;61.19;100043.25;3159918;28;20051;-66
2023/03/20 03:39:26;;;;;;;21.10;10.05;;;;;;;6.35;61.36;100073.91;3161628;28;20149;-66
2023/03/20 03:41:11;;;;;;;19.90;10.32;;;;;;;6.32;61.42;100079.16;3161800;28;20052;-66
2023/03/20 03:42:54;;;;;;;20.63;8.88;;;;;;;6.12;61.84;100051.16;3161958;28;20043;-66
2023/03/20 03:44:31;;;;;;;19.50;9.80;;;;;;;6.24;61.85;100081.06;3158169;28;20617;-66
2023/03/20 03:46:09;;;;;;;18.90;9.95;;;;;;;6.23;62.16;100079.38;3161381;28;20519;-67
2023/03/20 03:47:46;;;;;;;19.15;10.32;;;;;;;6.21;62.04;100075.97;3161944;28;20162;-66
2023/03/20 03:49:21;;;;;;;17.77;9.57;;;;;;;6.14;62.09;100065.75;3162015;28;20058;-66
2023/03/20 03:50:56;;;;;;;22.60;10.38;;;;;;;6.13;62.14;100066.66;3161711;28;20055;-66
2023/03/20 03:52:30;;;;;;;23.00;10.50;;;;;;;5.02;62.01;99889.06;3161243;28;20447;-66
2023/03/20 03:54:07;;;;;;;23.55;10.65;;;;;;;5.93;62.20;100041.25;3161622;28;20303;-66
2023/03/20 03:55:42;;;;;;;19.35;10.15;;;;;;;6.11;62.24;100075.31;3162097;27;20134;-66
2023/03/20 03:57:18;;;;;;;20.83;11.23;;;;;;;6.04;62.29;100071.19;3160972;28;20043;-66
2023/03/20 03:58:56;;;;;;;19.75;9.27;;;;;;;6.02;62.48;100072.94;3161460;28;20281;-66
2023/03/20 04:00:29;;;;;;;17.77;9.75;;;;;;;6.05;62.53;100085.81;3161268;28;20052;-67
2023/03/20 04:02:04;;;;;;;21.13;9.43;;;;;;;6.03;62.64;100084.97;3161606;28;20094;-65
2023/03/20 04:03:39;;;;;;;21.58;10.63;;;;;;;5.96;62.65;100070.50;3162004;28;20700;-65
2023/03/20 04:05:14;;;;;;;17.45;8.93;;;;;;;5.00;62.57;99919.25;3162359;28;20138;-65
2023/03/20 04:06:46;;;;;;;23.65;9.88;;;;;;;5.97;62.77;100080.78;3160507;28;20044;-66
2023/03/20 04:08:18;;;;;;;24.73;9.48;;;;;;;5.96;62.71;100079.09;3160661;28;20523;-66
2023/03/20 04:09:50;;;;;;;20.25;10.15;;;;;;;5.95;62.77;100082.59;3160858;28;20061;-66
2023/03/20 04:11:24;;;;;;;22.23;9.88;;;;;;;5.88;62.77;100079.22;3160653;28;20112;-66
2023/03/20 04:12:56;;;;;;;20.30;10.18;;;;;;;5.90;62.78;100082.63;3149148;28;20218;-65
2023/03/20 04:14:30;;;;;;;20.35;10.13;;;;;;;5.82;62.88;100070.75;3162093;28;20047;-66
2023/03/20 04:16:02;;;;;;;20.38;9.90;;;;;;;5.83;62.67;100080.22;3162053;28;20055;-67
2023/03/20 04:17:33;;;;;;;22.73;10.32;;;;;;;5.83;62.81;100087.97;3161516;28;20235;-67
2023/03/20 04:19:05;;;;;;;19.83;10.88;;;;;;;5.78;62.66;100082.91;3161017;28;20651;-66
2023/03/20 04:20:37;;;;;;;21.92;10.82;;;;;;;5.66;62.73;100072.81;3159782;28;20065;-66
2023/03/20 04:22:08;;;;;;;26.35;10.60;;;;;;;5.58;62.73;100065.22;3160822;28;20909;-67
2023/03/20 04:23:40;;;;;;;23.92;10.43;;;;;;;5.67;62.80;100082.25;3160956;28;20093;-66
2023/03/20 04:25:17;;;;;;;27.33;11.40;;;;;;;5.66;62.94;100083.16;3161302;27;20151;-67
2023/03/20 04:26:49;;;;;;;25.45;10.70;;;;;;;5.61;62.98;100080.66;3160680;28;20142;-66
2023/03/20 04:28:21;;;;;;;23.48;11.15;;;;;;;5.59;63.11;100087.59;3160644;28;20058;-68
2023/03/20 04:29:55;;;;;;;23.67;11.23;;;;;;;5.57;63.15;100083.34;3160248;28;20075;-67
2023/03/20 04:31:27;;;;;;;24.90;11.20;;;;;;;5.53;63.26;100077.41;3153583;28;20048;-67
2023/03/20 04:32:59;;;;;;;21.40;10.60;;;;;;;5.52;63.26;100080.84;3161907;28;20528;-66
2023/03/20 04:34:31;;;;;;;22.08;10.52;;;;;;;5.49;63.48;100086.06;3161562;28;20075;-67
2023/03/20 04:36:05;;;;;;;28.50;10.45;;;;;;;5.46;63.42;100071.47;3161608;28;20517;-66
2023/03/20 04:37:37;;;;;;;19.33;9.93;;;;;;;5.42;63.48;100067.28;3161299;28;20560;-66
2023/03/20 04:39:07;;;;;;;19.83;10.18;;;;;;;5.02;63.26;100007.78;3162059;27;20599;-66
2023/03/20 04:40:40;;;;;;;21.83;10.10;;;;;;;5.46;63.31;100086.13;3161830;28;20165;-66
2023/03/20 04:42:12;;;;;;;23.85;10.68;;;;;;;4.76;63.17;99973.03;3160474;28;20051;-66
2023/03/20 04:43:44;;;;;;;22.15;10.57;;;;;;;5.44;63.37;100085.31;3160718;28;20104;-66
2023/03/20 04:45:17;;;;;;;20.65;10.18;;;;;;;5.43;63.30;100079.28;3161034;28;20056;-66
2023/03/20 04:46:48;;;;;;;19.92;9.85;;;;;;;5.40;63.48;100081.94;3160052;28;20085;-67
2023/03/20 04:48:21;;;;;;;19.25;10.57;;;;;;;5.38;63.55;100078.56;3160471;27;20055;-67
2023/03/20 04:49:53;;;;;;;22.63;10.50;;;;;;;5.39;63.59;100087.16;3160325;28;20056;-67
2023/03/20 04:51:25;;;;;;;23.00;10.73;;;;;;;5.16;63.59;100052.28;3160415;28;20134;-67
2023/03/20 04:52:57;;;;;;;27.08;11.63;;;;;;;5.30;63.75;100074.41;3161253;28;20051;-67
2023/03/20 04:54:29;;;;;;;20.80;10.02;;;;;;;5.28;63.65;100069.25;3161704;28;20644;-66
2023/03/20 04:56:01;;;;;;;21.20;11.00;;;;;;;4.91;63.65;100001.97;3161726;28;20590;-66
2023/03/20 04:57:33;;;;;;;24.27;10.55;;;;;;;5.38;63.67;100088.00;3161048;28;20051;-67
2023/03/20 04:59:04;;;;;;;26.55;11.40;;;;;;;5.34;63.89;100091.53;3160337;28;20058;-67
2023/03/20 05:00:38;;;;;;;21.27;10.65;;;;;;;5.32;63.74;100088.97;3168550;28;20093;-67
2023/03/20 05:02:13;;;;;;;22.42;11.43;;;;;;;5.29;63.80;100096.78;3170571;28;20085;-67
2023/03/20 05:03:45;;;;;;;21.05;10.73;;;;;;;5.30;63.97;100100.22;3170472;28;20044;-68
2023/03/20 05:05:17;;;;;;;24.13;10.30;;;;;;;5.30;64.00;100093.34;3170709;28;20079;-69
2023/03/20 05:06:49;;;;;;;21.23;10.23;;;;;;;5.25;64.08;100088.25;3157352;28;20055;-69
2023/03/20 05:08:21;;;;;;;23.58;10.82;;;;;;;5.33;64.06;100100.19;3169381;28;20146;-75
2023/03/20 05:09:51;;;;;;;20.00;10.82;;;;;;;5.35;64.00;100098.41;3170597;28;20409;-71
2023/03/20 05:11:23;;;;;;;22.30;10.20;;;;;;;5.36;64.02;100087.22;3170353;28;20058;-73
2023/03/20 05:12:55;;;;;;;21.48;10.07;;;;;;;5.38;64.11;100088.88;3169891;28;20388;-69
2023/03/20 05:14:26;;;;;;;19.75;10.55;;;;;;;5.38;64.10;100088.88;3169581;28;20088;-70
2023/03/20 05:16:00;;;;;;;24.27;9.90;;;;;;;5.23;64.19;100064.22;3169462;28;20122;-69
2023/03/20 05:17:30;;;;;;;40.90;18.95;;;;;;;5.39;64.24;100094.91;3170119;28;20047;-70
2023/03/20 05:19:02;;;;;;;96.53;44.75;;;;;;;4.87;64.19;100008.94;3165702;28;20054;-68
2023/03/20 05:20:33;;;;;;;49.65;23.38;;;;;;;5.02;64.22;100015.53;3170066;28;20044;-72
2023/03/20 05:22:05;;;;;;;24.38;11.40;;;;;;;5.42;64.26;100092.25;3169983;28;20097;-73
2023/03/20 05:23:38;;;;;;;24.52;10.95;;;;;;;5.50;64.30;100102.41;3165517;28;20601;-74
2023/03/20 05:25:10;;;;;;;24.25;10.52;;;;;;;5.43;64.39;100075.84;3164884;28;20545;-73
2023/03/20 05:26:42;;;;;;;23.23;8.93;;;;;;;5.52;64.47;100095.50;3169659;28;20480;-72
2023/03/20 05:28:13;;;;;;;18.95;9.15;;;;;;;5.36;64.38;100058.81;3169475;28;20705;-72
2023/03/20 05:29:45;;;;;;;19.65;9.30;;;;;;;5.50;64.46;100074.00;3170064;28;20048;-74
2023/03/20 05:31:19;;;;;;;21.98;10.07;;;;;;;5.56;64.45;100087.66;3170150;28;20044;-72
2023/03/20 05:32:51;;;;;;;22.13;9.13;;;;;;;5.60;64.44;100097.03;3169652;28;20552;-69
2023/03/20 05:34:23;;;;;;;27.45;10.35;;;;;;;5.21;64.56;100031.53;3169495;28;20047;-73
2023/03/20 05:35:55;;;;;;;22.30;11.25;;;;;;;5.55;64.67;100075.63;3169785;28;20100;-71
2023/03/20 05:37:27;;;;;;;23.50;10.80;;;;;;;5.57;64.82;100078.19;3166970;28;20047;-73
2023/03/20 05:38:59;;;;;;;24.05;11.00;;;;;;;5.59;64.66;100087.59;3163986;28;20052;-73
2023/03/20 05:40:31;;;;;;;19.95;9.88;;;;;;;5.69;64.42;100091.69;3169446;27;20044;-72
2023/03/20 05:42:02;;;;;;;27.20;11.68;;;;;;;5.59;64.49;100072.09;3169492;28;20528;-71
2023/03/20 05:43:34;;;;;;;22.77;10.60;;;;;;;5.79;64.33;100092.34;3169683;28;20071;-71
2023/03/20 05:45:07;;;;;;;23.00;10.57;;;;;;;5.68;64.41;100071.06;3169090;28;20056;-71
2023/03/20 05:46:40;;;;;;;26.90;11.48;;;;;;;5.76;64.39;100084.66;3169294;28;20051;-71
2023/03/20 05:48:12;;;;;;;;;;;;;;;5.83;64.10;100094.00;3170252;28;20075;-70
2023/03/20 05:49:44;;;;;;;26.45;10.50;;;;;;;5.85;64.16;100093.94;3169287;28;19920;-70
2023/03/20 05:51:16;;;;;;;31.48;11.48;;;;;;;5.89;64.16;100090.44;3168394;28;20047;-70
2023/03/20 05:52:47;;;;;;;23.65;10.63;;;;;;;5.71;64.38;100071.00;3168488;28;20048;-70
2023/03/20 05:54:19;;;;;;;20.63;10.30;;;;;;;5.85;64.12;100081.88;3168865;28;20509;-70
2023/03/20 05:55:51;;;;;;;26.98;11.07;;;;;;;5.95;64.29;100092.91;3169337;28;20135;-70
2023/03/20 05:57:23;;;;;;;36.28;13.07;;;;;;;5.99;64.18;100093.69;3168868;28;20043;-70
2023/03/20 05:58:55;;;;;;;25.00;11.60;;;;;;;5.98;64.14;100086.84;3169515;28;20048;-70
2023/03/20 06:00:26;;;;;;;23.15;10.95;;;;;;;6.01;64.23;100077.28;3168959;28;20539;-72
2023/03/20 06:01:59;;;;;;;23.25;11.02;;;;;;;6.14;64.24;100086.44;3169128;28;20055;-71
2023/03/20 06:03:31;;;;;;;26.73;11.57;;;;;;;6.22;64.12;100090.59;3168979;28;20112;-70
2023/03/20 06:05:04;;;;;;;25.38;11.45;;;;;;;6.23;64.16;100079.38;3165213;28;20074;-70
2023/03/20 06:06:36;;;;;;;24.02;11.48;;;;;;;6.32;64.18;100080.00;3168425;28;20513;-71
2023/03/20 06:08:08;;;;;;;27.15;12.65;;;;;;;6.51;63.86;100088.19;3164280;28;20093;-70
2023/03/20 06:09:40;;;;;;;21.38;11.50;;;;;;;6.61;64.06;100094.84;3169313;28;20496;-70
2023/03/20 06:11:12;;;;;;;24.92;11.27;;;;;;;6.59;63.78;100068.13;3169724;28;20048;-70
2023/03/20 06:12:44;;;;;;;37.08;11.75;;;;;;;6.84;63.44;100093.44;3169644;28;20044;-69
2023/03/20 06:14:16;;;;;;;21.55;11.00;;;;;;;6.96;63.25;100094.84;3169436;28;20043;-72
2023/03/20 06:15:48;;;;;;;30.92;12.02;;;;;;;7.00;63.32;100080.94;3168712;28;20489;-74
2023/03/20 06:17:21;;;;;;;24.00;10.88;;;;;;;7.20;62.99;100096.81;3169479;28;20116;-74
2023/03/20 06:18:53;;;;;;;24.55;10.90;;;;;;;7.34;62.69;100086.06;3169565;28;20062;-72
2023/03/20 06:20:25;;;;;;;37.08;12.00;;;;;;;7.47;62.66;100090.00;3169294;28;20047;-75
2023/03/20 06:21:57;;;;;;;24.33;11.40;;;;;;;7.63;62.51;100095.63;3169767;28;20061;-74
2023/03/20 06:23:29;;;;;;;28.17;10.73;;;;;;;7.80;62.34;100095.13;3169023;28;20052;-74
2023/03/20 06:25:01;;;;;;;22.85;11.05;;;;;;;7.95;62.06;100086.06;3169467;28;20574;-71
2023/03/20 06:26:32;;;;;;;51.45;17.80;;;;;;;8.04;61.73;100075.41;3169287;28;20039;-71
2023/03/20 06:28:05;;;;;;;43.00;20.65;;;;;;;8.26;61.66;100085.97;3169388;28;20463;-71
2023/03/20 06:29:36;;;;;;;24.67;13.40;;;;;;;8.36;61.14;100078.75;3169039;28;20156;-73
2023/03/20 06:31:08;;;;;;;30.75;11.25;;;;;;;8.69;61.50;100088.97;3169456;28;20113;-74
2023/03/20 06:32:42;;;;;;;21.88;10.52;;;;;;;8.98;61.26;100086.25;3169335;28;20044;-74
2023/03/20 06:34:14;;;;;;;29.50;10.82;;;;;;;9.32;60.71;100085.94;3169437;28;20056;-74
2023/03/20 06:35:46;;;;;;;26.27;10.50;;;;;;;9.61;59.75;100080.59;3169234;28;20101;-74
2023/03/20 06:37:18;;;;;;;20.40;10.48;;;;;;;9.91;59.10;100083.78;3169191;28;20047;-74
2023/03/20 06:38:50;;;;;;;22.88;11.13;;;;;;;10.30;58.64;100083.22;3168851;28;20101;-74
2023/03/20 06:40:22;;;;;;;23.80;10.93;;;;;;;10.68;58.07;100074.72;3167755;28;20113;-74
2023/03/20 06:41:54;;;;;;;38.00;14.68;;;;;;;11.13;57.07;100058.03;3169357;28;20044;-74
2023/03/20 06:43:26;;;;;;;52.65;20.73;;;;;;;11.86;56.01;100089.63;3168288;28;20155;-75
2023/03/20 06:44:58;;;;;;;33.03;14.27;;;;;;;12.47;54.33;100075.41;3168411;28;20047;-75
2023/03/20 06:46:30;;;;;;;32.20;12.50;;;;;;;13.02;53.02;100066.63;3168255;28;20048;-74
2023/03/20 06:48:06;;;;;;;36.10;13.23;;;;;;;13.63;51.33;100076.50;3157412;28;20081;-74
2023/03/20 06:49:37;;;;;;;41.13;12.30;;;;;;;14.09;49.72;100076.66;3168839;28;20142;-75
2023/03/20 06:51:09;;;;;;;35.72;13.52;;;;;;;14.44;48.54;100077.28;3169405;28;20435;-75
2023/03/20 06:52:40;;;;;;;38.03;12.65;;;;;;;14.77;47.54;100069.28;3168742;28;20051;-74
2023/03/20 06:54:12;;;;;;;36.00;13.20;;;;;;;15.11;46.68;100072.53;3169310;28;20047;-75
2023/03/20 06:55:47;;;;;;;32.75;12.90;;;;;;;15.17;45.93;100024.97;3169353;28;20097;-74
2023/03/20 06:57:19;;;;;;;34.85;14.10;;;;;;;15.82;45.10;100073.53;3169048;28;20088;-73
2023/03/20 06:58:51;;;;;;;39.35;13.75;;;;;;;16.10;43.75;100070.00;3169251;28;20051;-74
2023/03/20 07:00:23;;;;;;;32.67;11.88;;;;;;;16.39;43.65;100068.13;3164801;28;20052;-74
2023/03/20 07:01:55;;;;;;;28.42;12.18;;;;;;;16.66;43.43;100054.13;3158911;28;20055;-72
2023/03/20 07:03:29;;;;;;;29.23;12.77;;;;;;;16.94;42.02;100068.91;3159120;28;20071;-73
2023/03/20 07:05:02;;;;;;;35.03;12.93;;;;;;;16.97;41.67;100069.56;3159368;28;20551;-73
2023/03/20 07:06:34;;;;;;;26.35;13.70;;;;;;;17.11;41.02;100070.41;3158774;28;20055;-72
2023/03/20 07:08:06;;;;;;;38.17;13.50;;;;;;;17.14;40.28;100065.78;3152611;28;20048;-74
2023/03/20 07:09:38;;;;;;;31.05;13.65;;;;;;;17.33;40.68;100065.34;3159648;28;20047;-73
2023/03/20 07:11:10;;;;;;;32.55;12.23;;;;;;;17.56;40.08;100068.19;3159645;28;20471;-75
2023/03/20 07:12:43;;;;;;;24.08;10.77;;;;;;;17.82;39.68;100067.22;3159328;28;20468;-64
2023/03/20 07:14:15;;;;;;;26.40;12.20;;;;;;;18.06;39.51;100066.44;3160250;28;20508;-69
2023/03/20 07:15:47;;;;;;;30.25;12.40;;;;;;;18.32;39.04;100065.38;3159762;28;20144;-70
2023/03/20 07:17:19;;;;;;;31.73;13.20;;;;;;;18.42;38.41;100042.63;3154733;28;20048;-74